SVMG/PMV METAR and TAF weather

Enter ICAO airport designator
Station Type Date Time Source
SVMG METAR 2021/09/23 04:03 UTC NOAA

SVMG 230403Z AUTO 10010KT NCD 33/25 Q1012


Station Type Date Time Source
SVMG Decoded METAR 2021/09/23 04:03 UTC NOAA

Margarita / Del Carib, Venezuela (SVMG) 10-55N 063-59W
Sep 23, 2021 - 12:03 AM EDT / 2021.09.23 0403 UTC
Wind: from the E (100 degrees) at 12 MPH (10 KT):0
Temperature: 91 F (33 C)
Heat index: 103.5 F (39.7 C):1
Dew Point: 77 F (25 C)
Relative Humidity: 62%
Pressure (altimeter): 29.88 in. Hg (1012 hPa)
ob: SVMG 230403Z AUTO 10010KT NCD 33/25 Q1012
cycle: 4

Station Type Date Time Source
SVMG TAF 2021/09/23 18:04 UTC NOAA

TAF SVMG 231600Z 2318/2418 08005KT 9999 FEW016 TX33/2317Z TN23/2408Z
BECMG 2318/2322 09011KT 9999 SCT020

Example: see airport list